createdAt,value
2023-05-09T00:01:18.043Z,101882.47
2023-05-09T00:03:45.923Z,101884.53
2023-05-09T00:06:15.349Z,101884.63
2023-05-09T00:08:43.256Z,101883.50
2023-05-09T00:11:11.249Z,101887.31
2023-05-09T00:13:39.085Z,101879.75
2023-05-09T00:16:08.137Z,101884.16
2023-05-09T00:18:38.502Z,101878.91
2023-05-09T00:21:06.622Z,101880.56
2023-05-09T00:23:34.558Z,101880.44
2023-05-09T00:26:02.544Z,101878.81
2023-05-09T00:28:30.724Z,101876.56
2023-05-09T00:30:58.821Z,101878.22
2023-05-09T00:33:27.609Z,101886.00
2023-05-09T00:35:56.951Z,101880.56
2023-05-09T00:38:25.179Z,101873.13
2023-05-09T00:40:53.105Z,101877.34
2023-05-09T00:43:22.401Z,101876.91
2023-05-09T00:45:50.854Z,101870.94
2023-05-09T00:48:19.183Z,101878.56
2023-05-09T00:50:48.113Z,101871.09
2023-05-09T00:53:17.484Z,101873.13
2023-05-09T00:55:45.690Z,101877.31
2023-05-09T00:58:13.759Z,101869.66
2023-05-09T01:00:42.979Z,101865.00
2023-05-09T01:03:12.497Z,101869.88
2023-05-09T01:05:48.934Z,101864.88
2023-05-09T01:08:28.123Z,101859.16
2023-05-09T01:11:02.130Z,101852.56
2023-05-09T01:13:38.588Z,101854.03
2023-05-09T01:16:15.443Z,101847.84
2023-05-09T01:18:48.218Z,101847.69
2023-05-09T01:21:21.544Z,101853.56
2023-05-09T01:24:23.841Z,101851.25
2023-05-09T01:27:07.490Z,101852.25
2023-05-09T01:29:38.408Z,101844.34
2023-05-09T01:32:11.225Z,101852.34
2023-05-09T01:34:41.814Z,101839.88
2023-05-09T01:37:12.024Z,101842.28
2023-05-09T01:39:43.031Z,101843.03
2023-05-09T01:42:12.879Z,101838.88
2023-05-09T01:44:46.597Z,101835.31
2023-05-09T01:47:16.942Z,101836.19
2023-05-09T01:49:47.576Z,101833.63
2023-05-09T01:52:19.559Z,101837.00
2023-05-09T01:54:48.234Z,101829.22
2023-05-09T01:57:16.833Z,101833.09
2023-05-09T01:59:48.461Z,101828.34
2023-05-09T02:02:16.912Z,101835.38
2023-05-09T02:04:46.180Z,101832.94
2023-05-09T02:07:15.025Z,101833.78
2023-05-09T02:09:42.994Z,101830.75
2023-05-09T02:12:10.976Z,101829.81
2023-05-09T02:14:38.954Z,101832.00
2023-05-09T02:17:10.647Z,101832.88
2023-05-09T02:19:38.585Z,101825.50
2023-05-09T02:22:06.554Z,101824.72
2023-05-09T02:24:35.190Z,101830.47
2023-05-09T02:27:04.501Z,101832.00
2023-05-09T02:29:40.256Z,101836.34
2023-05-09T02:32:13.667Z,101829.28
2023-05-09T02:34:43.040Z,101826.38
2023-05-09T02:37:12.427Z,101832.16
2023-05-09T02:39:40.630Z,101834.03
2023-05-09T02:42:11.112Z,101837.66
2023-05-09T02:44:39.760Z,101841.72
2023-05-09T02:47:08.465Z,101836.66
2023-05-09T02:49:38.486Z,101835.34
2023-05-09T02:52:06.807Z,101838.88
2023-05-09T02:54:34.804Z,101828.22
2023-05-09T02:57:03.067Z,101832.78
2023-05-09T02:59:31.071Z,101837.97
2023-05-09T03:02:02.552Z,101831.88
2023-05-09T03:04:31.176Z,101834.88
2023-05-09T03:07:01.432Z,101827.56
2023-05-09T03:09:33.261Z,101824.38
2023-05-09T03:12:02.401Z,101825.56
2023-05-09T03:14:31.123Z,101824.63
2023-05-09T03:16:59.570Z,101824.56
2023-05-09T03:19:33.707Z,101824.56
2023-05-09T03:22:02.996Z,101810.31
2023-05-09T03:24:34.203Z,101814.97
2023-05-09T03:27:03.658Z,101816.81
2023-05-09T03:29:31.909Z,101814.66
2023-05-09T03:32:00.100Z,101817.44
2023-05-09T03:34:28.021Z,101812.94
2023-05-09T03:36:56.148Z,101811.56
2023-05-09T03:39:26.192Z,101813.41
2023-05-09T03:41:57.642Z,101806.41
2023-05-09T03:44:26.693Z,101810.06
2023-05-09T03:46:54.676Z,101813.84
2023-05-09T03:49:23.142Z,101816.28
2023-05-09T03:51:53.994Z,101822.09
2023-05-09T03:54:22.029Z,101819.09
2023-05-09T03:56:52.441Z,101815.31
2023-05-09T03:59:20.801Z,101818.75
2023-05-09T04:01:48.877Z,101812.22
2023-05-09T04:04:18.850Z,101815.69
2023-05-09T04:06:46.802Z,101810.88
2023-05-09T04:09:17.132Z,101816.31
2023-05-09T04:11:46.990Z,101806.56
2023-05-09T04:14:18.000Z,101808.09
2023-05-09T04:16:46.563Z,101803.41
2023-05-09T04:19:14.726Z,101803.47
2023-05-09T04:21:42.682Z,101803.69
2023-05-09T04:24:10.608Z,101807.03
2023-05-09T04:26:44.423Z,101805.41
2023-05-09T04:29:17.476Z,101805.31
2023-05-09T04:31:51.305Z,101804.25
2023-05-09T04:34:20.588Z,101806.41
2023-05-09T04:36:49.045Z,101807.94
2023-05-09T04:39:16.904Z,101804.28
2023-05-09T04:41:54.187Z,101805.41
2023-05-09T04:44:24.811Z,101806.63
2023-05-09T04:46:55.051Z,101806.00
2023-05-09T04:49:22.982Z,101804.94
2023-05-09T04:51:51.616Z,101809.84
2023-05-09T04:54:19.608Z,101807.22
2023-05-09T04:56:50.606Z,101809.03
2023-05-09T04:59:18.945Z,101803.06
2023-05-09T05:01:49.034Z,101800.34
2023-05-09T05:04:17.072Z,101803.16
2023-05-09T05:06:45.322Z,101791.19
2023-05-09T05:09:13.922Z,101799.91
2023-05-09T05:11:53.230Z,101795.75
2023-05-09T05:14:26.795Z,101802.47
2023-05-09T05:16:56.188Z,101796.19
2023-05-09T05:19:24.992Z,101794.00
2023-05-09T05:21:52.888Z,101801.06
2023-05-09T05:24:21.200Z,101796.03
2023-05-09T05:26:49.164Z,101793.09
2023-05-09T05:29:17.820Z,101785.63
2023-05-09T05:31:46.461Z,101796.03
2023-05-09T05:34:16.627Z,101789.34
2023-05-09T05:36:45.620Z,101792.81
2023-05-09T05:39:16.106Z,101786.00
2023-05-09T05:41:44.587Z,101778.78
2023-05-09T05:44:12.526Z,101785.31
2023-05-09T05:46:40.433Z,101782.44
2023-05-09T05:49:08.641Z,101783.19
2023-05-09T05:51:38.421Z,101775.53
2023-05-09T05:54:07.804Z,101769.50
2023-05-09T05:56:37.042Z,101763.34
2023-05-09T05:59:05.271Z,101759.03
2023-05-09T06:01:33.564Z,101762.69
2023-05-09T06:04:01.600Z,101760.84
2023-05-09T06:06:32.304Z,101749.81
2023-05-09T06:09:01.755Z,101750.31
2023-05-09T06:11:29.731Z,101746.63
2023-05-09T06:13:57.699Z,101750.88
2023-05-09T06:16:25.713Z,101747.66
2023-05-09T06:18:55.884Z,101744.09
2023-05-09T06:21:24.232Z,101742.97
2023-05-09T06:24:06.406Z,101738.16
2023-05-09T06:26:37.947Z,101732.69
2023-05-09T06:29:07.562Z,101735.69
2023-05-09T06:31:38.985Z,101732.59
2023-05-09T06:34:07.527Z,101733.31
2023-05-09T06:36:35.780Z,101724.38
2023-05-09T06:39:04.106Z,101723.53
2023-05-09T06:41:32.018Z,101729.03
2023-05-09T06:44:02.501Z,101715.78
2023-05-09T06:46:30.482Z,101713.88
2023-05-09T06:48:58.476Z,101703.97
2023-05-09T06:51:27.026Z,101701.69
2023-05-09T06:53:54.977Z,101704.19
2023-05-09T06:56:23.242Z,101691.75
2023-05-09T06:58:51.301Z,101704.13
2023-05-09T07:01:22.125Z,101699.03
2023-05-09T07:03:50.081Z,101703.25
2023-05-09T07:06:18.082Z,101693.25
2023-05-09T07:08:46.033Z,101681.63
2023-05-09T07:11:13.990Z,101689.06
2023-05-09T07:13:41.975Z,101669.38
2023-05-09T07:16:10.029Z,101665.59
2023-05-09T07:18:39.481Z,101661.41
2023-05-09T07:21:07.589Z,101661.19
2023-05-09T07:23:42.992Z,101661.97
2023-05-09T07:26:10.928Z,101657.09
2023-05-09T07:28:41.360Z,101659.63
2023-05-09T07:31:09.589Z,101639.97
2023-05-09T07:33:39.041Z,101655.31
2023-05-09T07:36:07.948Z,101646.00
2023-05-09T07:38:36.031Z,101629.19
2023-05-09T07:41:07.244Z,101636.06
2023-05-09T07:43:35.332Z,101632.75
2023-05-09T07:46:03.278Z,101630.50
2023-05-09T07:48:33.643Z,101617.72
2023-05-09T07:51:02.931Z,101620.16
2023-05-09T07:53:31.089Z,101612.94
2023-05-09T07:55:59.079Z,101611.56
2023-05-09T07:58:27.026Z,101604.63
2023-05-09T08:00:57.076Z,101597.75
2023-05-09T08:03:25.164Z,101596.06
2023-05-09T08:05:55.037Z,101599.13
2023-05-09T08:08:24.659Z,101596.22
2023-05-09T08:10:52.567Z,101588.69
2023-05-09T08:13:22.213Z,101585.69
2023-05-09T08:15:57.363Z,101585.97
2023-05-09T08:18:25.377Z,101588.28
2023-05-09T08:20:53.358Z,101588.06
2023-05-09T08:23:21.246Z,101593.41
2023-05-09T08:25:54.119Z,101587.75
2023-05-09T08:28:24.171Z,101576.78
2023-05-09T08:30:52.498Z,101580.03
2023-05-09T08:33:20.622Z,101573.19
2023-05-09T08:35:56.580Z,101572.84
2023-05-09T08:38:28.232Z,101571.31
2023-05-09T08:41:03.053Z,101566.34
2023-05-09T08:43:34.288Z,101564.31
2023-05-09T08:46:07.723Z,101575.03
2023-05-09T08:48:37.555Z,101571.81
2023-05-09T08:51:06.106Z,101573.94
2023-05-09T08:53:35.112Z,101569.16
2023-05-09T08:56:05.659Z,101569.41
2023-05-09T08:58:35.199Z,101569.88
2023-05-09T09:01:04.736Z,101568.50
2023-05-09T09:03:33.585Z,101560.53
2023-05-09T09:06:04.481Z,101563.28
2023-05-09T09:08:34.741Z,101551.25
2023-05-09T09:11:03.830Z,101558.69
2023-05-09T09:13:38.413Z,101552.41
2023-05-09T09:16:10.447Z,101554.66
2023-05-09T09:18:39.741Z,101546.06
2023-05-09T09:21:11.984Z,101548.78
2023-05-09T09:23:42.960Z,101539.25
2023-05-09T09:26:11.131Z,101538.97
2023-05-09T09:28:40.702Z,101540.28
2023-05-09T09:31:21.466Z,101542.53
2023-05-09T09:33:50.033Z,101539.78
2023-05-09T09:36:27.734Z,101534.28
2023-05-09T09:39:00.361Z,101535.69
2023-05-09T09:41:32.550Z,101529.69
2023-05-09T09:44:12.513Z,101525.09
2023-05-09T09:46:45.094Z,101521.47
2023-05-09T09:49:15.473Z,101518.69
2023-05-09T09:51:43.867Z,101506.44
2023-05-09T09:54:13.219Z,101501.03
2023-05-09T09:56:45.555Z,101503.03
2023-05-09T09:59:16.206Z,101498.56
2023-05-09T10:01:58.907Z,101505.19
2023-05-09T10:04:29.318Z,101494.25
2023-05-09T10:06:59.077Z,101492.16
2023-05-09T10:09:28.855Z,101487.56
2023-05-09T10:11:57.804Z,101488.78
2023-05-09T10:14:27.679Z,101495.22
2023-05-09T10:16:57.713Z,101488.22
2023-05-09T10:19:27.324Z,101478.19
2023-05-09T10:21:58.226Z,101466.88
2023-05-09T10:24:29.898Z,101484.31
2023-05-09T10:27:04.595Z,101472.75
2023-05-09T10:29:36.750Z,101469.69
2023-05-09T10:32:17.677Z,101469.97
2023-05-09T10:34:50.100Z,101468.84
2023-05-09T10:37:18.992Z,101459.91
2023-05-09T10:39:47.738Z,101448.66
2023-05-09T10:42:15.823Z,101452.50
2023-05-09T10:44:45.462Z,101451.09
2023-05-09T10:47:14.154Z,101456.91
2023-05-09T10:49:42.301Z,101455.16
2023-05-09T10:52:10.399Z,101451.38
2023-05-09T10:54:38.419Z,101431.38
2023-05-09T10:57:09.997Z,101437.81
2023-05-09T10:59:39.980Z,101425.22
2023-05-09T11:02:14.381Z,101421.09
2023-05-09T11:04:44.114Z,101435.53
2023-05-09T11:07:25.565Z,101428.31
2023-05-09T11:09:54.220Z,101425.56
2023-05-09T11:12:24.938Z,101410.38
2023-05-09T11:14:53.824Z,101419.78
2023-05-09T11:17:32.836Z,101415.22
2023-05-09T11:20:05.378Z,101405.41
2023-05-09T11:22:41.432Z,101414.75
2023-05-09T11:25:10.851Z,101400.25
2023-05-09T11:27:42.360Z,101415.88
2023-05-09T11:30:12.480Z,101405.72
2023-05-09T11:32:47.630Z,101400.06
2023-05-09T11:35:17.841Z,101394.81
2023-05-09T11:37:48.406Z,101388.16
2023-05-09T11:40:18.082Z,101388.19
2023-05-09T11:42:48.348Z,101376.41
2023-05-09T11:45:17.388Z,101371.19
2023-05-09T11:47:47.803Z,101365.16
2023-05-09T11:50:17.689Z,101359.47
2023-05-09T11:52:45.886Z,101364.34
2023-05-09T11:55:15.409Z,101356.22
2023-05-09T11:57:46.733Z,101350.81
2023-05-09T12:00:16.834Z,101347.91
2023-05-09T12:02:46.795Z,101341.22
2023-05-09T12:05:19.627Z,101335.13
2023-05-09T12:07:48.406Z,101352.38
2023-05-09T12:10:17.890Z,101337.84
2023-05-09T12:12:47.848Z,101321.03
2023-05-09T12:15:16.845Z,101326.31
2023-05-09T12:17:47.087Z,101324.28
2023-05-09T12:20:17.587Z,101303.81
2023-05-09T12:22:45.577Z,101307.91
2023-05-09T12:25:13.867Z,101312.25
2023-05-09T12:27:43.051Z,101297.41
2023-05-09T12:30:15.926Z,101295.41
2023-05-09T12:32:44.287Z,101296.84
2023-05-09T12:35:12.422Z,101288.69
2023-05-09T12:37:42.044Z,101286.34
2023-05-09T12:40:12.918Z,101281.25
2023-05-09T12:42:46.001Z,101277.91
2023-05-09T12:45:14.809Z,101274.03
2023-05-09T12:47:45.246Z,101273.50
2023-05-09T12:50:13.517Z,101275.38
2023-05-09T12:52:58.509Z,101263.72
2023-05-09T12:55:32.721Z,101255.84
2023-05-09T12:58:02.263Z,101268.34
2023-05-09T13:00:42.466Z,101256.53
2023-05-09T13:03:22.093Z,101249.03
2023-05-09T14:09:58.730Z,101143.78
2023-05-09T14:12:36.225Z,101140.31
2023-05-09T14:15:04.514Z,101129.63
2023-05-09T14:17:32.617Z,101124.72
2023-05-09T14:20:00.927Z,101119.16
2023-05-09T14:22:29.042Z,101119.97
2023-05-09T14:24:58.518Z,101119.97
2023-05-09T14:27:26.542Z,101113.06
2023-05-09T14:29:55.691Z,101103.53
2023-05-09T14:32:23.630Z,101105.56
2023-05-09T14:34:51.605Z,101100.41
2023-05-09T14:37:19.504Z,101085.16
2023-05-09T14:39:48.301Z,101087.75
2023-05-09T14:42:18.267Z,101094.03
2023-05-09T14:44:47.253Z,101078.97
2023-05-09T14:47:16.799Z,101084.47
2023-05-09T14:49:44.816Z,101073.88
2023-05-09T14:52:13.683Z,101089.09
2023-05-09T14:54:42.277Z,101081.28
2023-05-09T14:57:10.531Z,101073.03
2023-05-09T14:59:39.821Z,101065.81
2023-05-09T15:02:08.254Z,101071.72
2023-05-09T15:04:36.224Z,101063.56
2023-05-09T15:09:34.112Z,101069.38
2023-05-09T15:12:02.003Z,101049.91
2023-05-09T15:14:30.167Z,101054.75
2023-05-09T15:17:02.914Z,101050.28
2023-05-09T15:19:32.438Z,101048.25
2023-05-09T15:22:00.790Z,101046.56
2023-05-09T15:24:28.713Z,101043.66
2023-05-09T15:26:56.618Z,101035.78
2023-05-09T15:29:24.654Z,101027.88
2023-05-09T15:31:52.674Z,101025.22
2023-05-09T15:34:22.859Z,101019.31
2023-05-09T15:36:50.879Z,101012.09
2023-05-09T15:39:18.821Z,101006.06
2023-05-09T15:41:46.716Z,101010.16
2023-05-09T15:44:16.132Z,101022.13
2023-05-09T15:46:44.306Z,101016.38
2023-05-09T15:49:12.764Z,101012.63
2023-05-09T15:51:42.176Z,101009.75
2023-05-09T15:54:10.371Z,101010.00
2023-05-09T15:56:38.230Z,100999.72
2023-05-09T15:59:06.388Z,101001.94
2023-05-09T16:01:35.312Z,101009.81
2023-05-09T16:04:05.385Z,100995.69
2023-05-09T16:06:34.028Z,100989.50
2023-05-09T16:09:04.535Z,100994.41
2023-05-09T16:11:33.090Z,100993.97
2023-05-09T16:14:01.234Z,100976.84
2023-05-09T16:16:32.483Z,100986.91
2023-05-09T16:19:00.514Z,100982.81
2023-05-09T16:21:29.312Z,100974.94
2023-05-09T16:23:58.083Z,100972.91
2023-05-09T16:26:27.563Z,100966.97
2023-05-09T16:28:55.477Z,100971.63
2023-05-09T16:31:26.423Z,100977.19
2023-05-09T16:33:54.972Z,100970.47
2023-05-09T16:36:23.126Z,100962.88
2023-05-09T16:38:51.306Z,100962.44
2023-05-09T16:41:20.000Z,100961.00
2023-05-09T16:43:49.267Z,100959.44
2023-05-09T16:46:19.742Z,100957.75
2023-05-09T16:48:47.854Z,100958.72
2023-05-09T16:51:15.911Z,100946.56
2023-05-09T16:53:43.899Z,100959.44
2023-05-09T16:56:12.028Z,100957.22
2023-05-09T16:58:40.112Z,100959.84
2023-05-09T17:01:09.560Z,100956.66
2023-05-09T17:03:37.541Z,100957.31
2023-05-09T17:06:05.699Z,100942.75
2023-05-09T17:08:33.648Z,100953.38
2023-05-09T17:11:01.775Z,100944.25
2023-05-09T17:13:31.132Z,100939.53
2023-05-09T17:16:00.852Z,100937.38
2023-05-09T17:18:37.541Z,100929.28
2023-05-09T18:22:26.757Z,100898.69
2023-05-09T18:24:54.661Z,100899.72
2023-05-09T18:27:22.667Z,100890.38
2023-05-09T18:29:50.717Z,100889.47
2023-05-09T18:32:19.132Z,100890.88
2023-05-09T18:34:48.356Z,100895.69
2023-05-09T18:37:17.739Z,100896.94
2023-05-09T18:39:47.601Z,100894.25
2023-05-09T18:42:16.475Z,100895.34
2023-05-09T18:44:44.548Z,100892.84
2023-05-09T18:47:12.644Z,100902.03
2023-05-09T18:49:40.597Z,100897.72
2023-05-09T18:52:08.693Z,100903.75
2023-05-09T18:54:36.844Z,100897.38
2023-05-09T18:57:06.347Z,100893.34
2023-05-09T18:59:34.532Z,100896.16
2023-05-09T19:02:02.559Z,100893.59
2023-05-09T19:04:30.858Z,100890.28
2023-05-09T19:06:59.626Z,100887.63
2023-05-09T19:09:27.705Z,100883.97
2023-05-09T19:11:56.644Z,100891.44
2023-05-09T19:14:26.024Z,100886.50
2023-05-09T19:16:54.090Z,100895.28
2023-05-09T19:19:22.214Z,100891.13
2023-05-09T19:21:50.684Z,100899.63
2023-05-09T19:24:18.700Z,100882.47
2023-05-09T19:26:46.950Z,100889.50
2023-05-09T19:29:15.020Z,100890.50
2023-05-09T19:31:44.530Z,100881.91
2023-05-09T19:34:12.681Z,100883.56
2023-05-09T19:36:41.065Z,100874.47
2023-05-09T19:39:09.461Z,100869.66
2023-05-09T19:41:37.576Z,100876.94
2023-05-09T19:44:06.964Z,100878.47
2023-05-09T19:46:38.250Z,100872.78
2023-05-09T19:49:09.086Z,100870.44
2023-05-09T19:51:40.414Z,100865.47
2023-05-09T19:54:08.571Z,100867.44
2023-05-09T19:56:36.545Z,100866.59
2023-05-09T19:59:04.553Z,100868.03
2023-05-09T20:01:32.669Z,100864.09
2023-05-09T20:04:00.918Z,100862.47
2023-05-09T20:06:31.157Z,100857.97
2023-05-09T20:08:59.187Z,100864.47
2023-05-09T20:11:27.519Z,100866.00
2023-05-09T20:13:55.721Z,100854.13
2023-05-09T20:16:23.762Z,100860.44
2023-05-09T20:18:52.534Z,100862.84
2023-05-09T20:21:20.577Z,100848.88
2023-05-09T20:23:50.011Z,100854.19
2023-05-09T20:26:18.077Z,100852.66
2023-05-09T20:28:46.179Z,100851.97
2023-05-09T20:31:14.319Z,100838.75
2023-05-09T20:33:42.501Z,100842.06
2023-05-09T20:36:11.092Z,100832.59
2023-05-09T20:38:40.430Z,100835.81
2023-05-09T20:41:09.845Z,100843.59
2023-05-09T20:43:38.361Z,100832.59
2023-05-09T20:46:06.449Z,100832.88
2023-05-09T20:48:34.657Z,100830.53
2023-05-09T20:51:02.761Z,100832.91
2023-05-09T20:53:34.840Z,100824.97
2023-05-09T20:56:03.207Z,100821.19
2023-05-09T20:58:36.533Z,100824.53
2023-05-09T21:01:04.580Z,100818.25
2023-05-09T21:03:32.539Z,100805.41
2023-05-09T21:06:00.476Z,100810.31
2023-05-09T21:08:28.442Z,100805.44
2023-05-09T21:10:56.435Z,100803.16
2023-05-09T21:13:25.436Z,100791.03
2023-05-09T21:15:54.829Z,100800.00
2023-05-09T21:18:22.729Z,100803.59
2023-05-09T21:20:50.663Z,100796.50
2023-05-09T21:23:18.888Z,100793.44
2023-05-09T21:25:46.942Z,100782.41
2023-05-09T21:28:15.590Z,100787.72
2023-05-09T21:30:43.674Z,100784.66
2023-05-09T21:33:13.666Z,100782.72
2023-05-09T21:35:41.553Z,100785.63
2023-05-09T21:38:09.588Z,100787.41
2023-05-09T21:40:37.499Z,100773.91
2023-05-09T21:43:05.411Z,100777.81
2023-05-09T21:45:33.517Z,100769.03
2023-05-09T21:48:01.582Z,100776.53
2023-05-09T21:50:31.866Z,100771.81
2023-05-09T21:53:00.531Z,100771.09
2023-05-09T21:55:28.495Z,100769.31
2023-05-09T21:57:56.497Z,100775.00
2023-05-09T22:00:24.695Z,100768.47
2023-05-09T22:02:52.793Z,100768.75
2023-05-09T22:05:20.923Z,100769.56
2023-05-09T22:07:53.028Z,100763.44
2023-05-09T22:10:21.083Z,100766.91
2023-05-09T22:12:49.075Z,100761.22
2023-05-09T22:15:17.051Z,100767.31
2023-05-09T22:17:45.788Z,100768.03
2023-05-09T22:20:14.099Z,100762.19
2023-05-09T22:22:42.192Z,100764.97
2023-05-09T22:25:13.366Z,100763.00
2023-05-09T22:27:41.606Z,100762.69
2023-05-09T22:30:12.290Z,100758.50
2023-05-09T22:32:40.358Z,100761.56
2023-05-09T22:35:09.201Z,100764.88
2023-05-09T22:37:37.735Z,100761.97
2023-05-09T22:40:06.944Z,100761.56
2023-05-09T22:42:36.422Z,100757.78
2023-05-09T22:45:05.688Z,100763.19
2023-05-09T22:47:33.607Z,100759.13
2023-05-09T22:50:01.907Z,100763.69
2023-05-09T22:52:29.995Z,100762.31
2023-05-09T22:54:58.040Z,100759.25
2023-05-09T22:57:25.927Z,100749.97
2023-05-09T22:59:55.918Z,100746.25
2023-05-09T23:02:24.029Z,100742.47
2023-05-09T23:04:52.150Z,100739.09
2023-05-09T23:07:20.074Z,100737.41
2023-05-09T23:09:47.977Z,100735.41
2023-05-09T23:12:15.906Z,100740.69
2023-05-09T23:14:43.834Z,100732.13
2023-05-09T23:17:13.447Z,100735.41
2023-05-09T23:19:41.462Z,100737.78
2023-05-09T23:22:09.457Z,100736.22
2023-05-09T23:24:37.601Z,100738.09
2023-05-09T23:27:05.607Z,100735.63
2023-05-09T23:29:34.141Z,100740.38
2023-05-09T23:32:02.089Z,100733.97
2023-05-09T23:34:31.824Z,100728.16
2023-05-09T23:36:59.725Z,100722.09
2023-05-09T23:39:27.724Z,100726.69
2023-05-09T23:41:55.860Z,100717.16
2023-05-09T23:44:23.892Z,100716.31
2023-05-09T23:46:51.848Z,100714.44
2023-05-09T23:49:19.813Z,100715.94
2023-05-09T23:51:49.125Z,100715.53
2023-05-09T23:54:17.517Z,100713.09
2023-05-09T23:56:47.625Z,100713.56
2023-05-09T23:59:15.796Z,100712.53
